Time;durP1;ratioP1;P1;durP2;ratioP2;P2;SDS_P1;SDS_P2;PMS_P1;PMS_P2;Temp;Humidity;BMP_temperature;BMP_pressure;BME280_temperature;BME280_humidity;BME280_pressure;Samples;Min_cycle;Max_cycle;Signal;HPM_P1;HPM_P2
2022/07/17 00:00:00;;;;;;;2.43;2.27;;;;;;;;;;5022632;28;20244;-32
2022/07/17 00:02:27;;;;;;;2.90;2.30;;;;;;;;;;5043998;28;20212;-33
2022/07/17 00:04:54;;;;;;;2.33;2.13;;;;;;;;;;5037628;28;20209;-34
2022/07/17 00:07:21;;;;;;;2.37;2.10;;;;;;;;;;5035755;28;20222;-33
2022/07/17 00:09:48;;;;;;;5.17;2.30;;;;;;;;;;5029668;28;20210;-31
2022/07/17 00:12:16;;;;;;;3.37;2.50;;;;;;;;;;5027262;28;20223;-33
2022/07/17 00:14:44;;;;;;;2.83;2.53;;;;;;;;;;5020780;28;20207;-33
2022/07/17 00:17:12;;;;;;;4.00;2.20;;;;;;;;;;5031457;28;20218;-33
2022/07/17 00:19:39;;;;;;;4.13;2.57;;;;;;;;;;5039162;28;20244;-32
2022/07/17 00:22:06;;;;;;;2.33;2.20;;;;;;;;;;5032282;28;20209;-32
2022/07/17 00:24:33;;;;;;;2.10;2.00;;;;;;;;;;5049086;28;20232;-35
2022/07/17 00:27:00;;;;;;;3.30;2.30;;;;;;;;;;5043277;28;20229;-34
2022/07/17 00:29:28;;;;;;;2.83;2.30;;;;;;;;;;5034954;28;20212;-31
2022/07/17 00:31:56;;;;;;;2.60;2.30;;;;;;;;;;5049380;28;20221;-33
2022/07/17 00:34:23;;;;;;;2.83;2.57;;;;;;;;;;5041260;28;20222;-34
2022/07/17 00:36:50;;;;;;;2.57;2.20;;;;;;;;;;5022206;28;20237;-31
2022/07/17 00:39:17;;;;;;;2.43;2.23;;;;;;;;;;5033810;28;20198;-33
2022/07/17 00:41:45;;;;;;;3.03;2.50;;;;;;;;;;5049542;28;20202;-33
2022/07/17 00:44:12;;;;;;;2.27;2.03;;;;;;;;;;5039016;28;20315;-32
2022/07/17 00:46:50;;;;;;;3.83;2.73;;;;;;;;;;5041007;28;20283;-32
2022/07/17 00:49:19;;;;;;;2.73;2.53;;;;;;;;;;5028257;28;20205;-36
2022/07/17 00:51:46;;;;;;;3.10;2.47;;;;;;;;;;5028510;28;20232;-35
2022/07/17 00:54:15;;;;;;;3.63;2.87;;;;;;;;;;5052126;28;20194;-30
2022/07/17 00:56:43;;;;;;;2.50;2.30;;;;;;;;;;5051563;28;20233;-35
2022/07/17 00:59:11;;;;;;;4.70;2.53;;;;;;;;;;5032461;28;20209;-30
2022/07/17 01:01:38;;;;;;;3.83;2.43;;;;;;;;;;5021412;28;20213;-35
2022/07/17 01:04:05;;;;;;;4.20;2.43;;;;;;;;;;5028303;28;20503;-34
2022/07/17 01:06:34;;;;;;;3.13;2.50;;;;;;;;;;5027128;28;20237;-35
2022/07/17 01:09:01;;;;;;;2.83;2.57;;;;;;;;;;5034119;28;20224;-32
2022/07/17 01:11:28;;;;;;;2.83;2.40;;;;;;;;;;5018371;28;20217;-34
2022/07/17 01:13:55;;;;;;;2.93;2.47;;;;;;;;;;5020791;28;20217;-35
2022/07/17 01:16:23;;;;;;;4.33;2.60;;;;;;;;;;5049131;28;20655;-31
2022/07/17 01:18:50;;;;;;;2.80;2.60;;;;;;;;;;5025195;28;20225;-33
2022/07/17 01:21:19;;;;;;;2.60;2.30;;;;;;;;;;5020720;28;20229;-33
2022/07/17 01:23:46;;;;;;;2.40;2.20;;;;;;;;;;5044738;28;20204;-32
2022/07/17 01:26:13;;;;;;;2.33;2.13;;;;;;;;;;5041965;28;20205;-34
2022/07/17 01:28:40;;;;;;;3.17;2.40;;;;;;;;;;5018292;28;20213;-33
2022/07/17 01:31:07;;;;;;;6.03;2.67;;;;;;;;;;5036898;28;20304;-34
2022/07/17 01:33:34;;;;;;;2.97;2.73;;;;;;;;;;5053845;28;20208;-30
2022/07/17 01:36:01;;;;;;;2.77;2.57;;;;;;;;;;5041900;28;20223;-33
2022/07/17 01:38:30;;;;;;;2.93;2.60;;;;;;;;;;5043616;28;20296;-36
2022/07/17 01:40:57;;;;;;;2.53;2.33;;;;;;;;;;5054852;28;20205;-32
2022/07/17 01:43:24;;;;;;;2.67;2.17;;;;;;;;;;5031999;28;20216;-29
2022/07/17 01:45:52;;;;;;;2.53;2.33;;;;;;;;;;5036816;28;20224;-33
2022/07/17 01:48:26;;;;;;;2.40;2.20;;;;;;;;;;5052909;28;20228;-34
2022/07/17 01:50:53;;;;;;;2.40;2.20;;;;;;;;;;5039758;28;20278;-31
2022/07/17 01:53:20;;;;;;;3.13;2.47;;;;;;;;;;5037320;28;20231;-31
2022/07/17 01:55:49;;;;;;;3.43;2.60;;;;;;;;;;5041853;28;20202;-31
2022/07/17 01:58:16;;;;;;;2.50;2.30;;;;;;;;;;5033363;28;20224;-35
2022/07/17 02:00:43;;;;;;;3.17;2.40;;;;;;;;;;5035587;28;20268;-30
2022/07/17 02:03:10;;;;;;;2.73;2.47;;;;;;;;;;5052872;28;20209;-33
2022/07/17 02:05:37;;;;;;;3.43;2.50;;;;;;;;;;5033562;28;20205;-32
2022/07/17 02:08:05;;;;;;;3.07;2.07;;;;;;;;;;5038722;28;20232;-31
2022/07/17 02:10:32;;;;;;;2.30;2.17;;;;;;;;;;5036415;28;20213;-34
2022/07/17 02:13:00;;;;;;;2.27;2.03;;;;;;;;;;5035562;28;20232;-32
2022/07/17 02:15:28;;;;;;;5.30;2.20;;;;;;;;;;5044203;28;20214;-33
2022/07/17 02:17:55;;;;;;;3.20;2.10;;;;;;;;;;5054884;28;20271;-31
2022/07/17 02:20:22;;;;;;;3.17;2.40;;;;;;;;;;5037088;28;20725;-34
2022/07/17 02:22:49;;;;;;;2.63;2.33;;;;;;;;;;5030007;28;20209;-30
2022/07/17 02:25:16;;;;;;;3.47;2.10;;;;;;;;;;5040862;28;20210;-35
2022/07/17 02:27:44;;;;;;;3.73;2.67;;;;;;;;;;5025341;28;20229;-33
2022/07/17 02:30:14;;;;;;;2.67;2.47;;;;;;;;;;5028040;28;20212;-34
2022/07/17 02:32:41;;;;;;;2.60;2.40;;;;;;;;;;5052374;28;20223;-32
2022/07/17 02:35:09;;;;;;;3.10;2.30;;;;;;;;;;5038943;28;20204;-32
2022/07/17 02:37:36;;;;;;;2.67;2.20;;;;;;;;;;5030197;28;20217;-33
2022/07/17 02:40:04;;;;;;;2.90;2.57;;;;;;;;;;5041931;28;20295;-31
2022/07/17 02:42:31;;;;;;;5.13;2.23;;;;;;;;;;5052625;28;20204;-34
2022/07/17 02:44:59;;;;;;;2.70;2.50;;;;;;;;;;5032918;28;20220;-31
2022/07/17 02:47:28;;;;;;;2.07;1.97;;;;;;;;;;5049451;28;20393;-34
2022/07/17 02:49:56;;;;;;;2.40;2.20;;;;;;;;;;5040701;28;20221;-30
2022/07/17 02:52:23;;;;;;;3.33;2.13;;;;;;;;;;5037750;28;20227;-30
2022/07/17 02:54:50;;;;;;;2.50;2.30;;;;;;;;;;5039651;28;20215;-33
2022/07/17 02:57:18;;;;;;;2.40;2.20;;;;;;;;;;5030844;28;20310;-34
2022/07/17 02:59:45;;;;;;;2.87;2.50;;;;;;;;;;5045847;28;20203;-33
2022/07/17 03:02:12;;;;;;;2.73;2.53;;;;;;;;;;5289758;22;21128;-34
2022/07/17 03:04:41;;;;;;;4.13;2.37;;;;;;;;;;5022928;28;20212;-37
2022/07/17 03:07:08;;;;;;;2.63;2.40;;;;;;;;;;5022131;28;20235;-38
2022/07/17 03:09:35;;;;;;;2.50;2.27;;;;;;;;;;5030376;28;20216;-35
2022/07/17 03:12:02;;;;;;;2.23;2.13;;;;;;;;;;5027435;28;20224;-39
2022/07/17 03:14:29;;;;;;;2.83;2.63;;;;;;;;;;5021572;28;20208;-40
2022/07/17 03:16:56;;;;;;;2.60;2.40;;;;;;;;;;5031675;28;20227;-36
2022/07/17 03:19:23;;;;;;;2.57;2.40;;;;;;;;;;5026049;28;20216;-34
2022/07/17 03:21:52;;;;;;;2.30;2.20;;;;;;;;;;5038281;28;20270;-36
2022/07/17 03:24:19;;;;;;;5.10;2.60;;;;;;;;;;5027295;28;20231;-39
2022/07/17 03:26:46;;;;;;;2.80;2.60;;;;;;;;;;5035399;28;20274;-38
2022/07/17 03:29:17;;;;;;;2.40;2.30;;;;;;;;;;5024921;28;20468;-35
2022/07/17 03:31:44;;;;;;;5.60;2.57;;;;;;;;;;5042307;28;20208;-34
2022/07/17 03:34:11;;;;;;;2.70;2.50;;;;;;;;;;5034560;28;20213;-35
2022/07/17 03:36:38;;;;;;;2.60;2.40;;;;;;;;;;5027811;28;20236;-37
2022/07/17 03:39:07;;;;;;;3.07;2.87;;;;;;;;;;5033509;28;20208;-38
2022/07/17 03:41:34;;;;;;;4.10;2.30;;;;;;;;;;5030730;28;20203;-35
2022/07/17 03:44:01;;;;;;;2.43;2.27;;;;;;;;;;5026505;28;20215;-39
2022/07/17 03:46:29;;;;;;;2.30;2.20;;;;;;;;;;5029803;28;20224;-34
2022/07/17 03:48:56;;;;;;;4.80;2.73;;;;;;;;;;5030163;28;20207;-33
2022/07/17 03:51:23;;;;;;;2.67;2.47;;;;;;;;;;5029997;28;20216;-40
2022/07/17 03:53:50;;;;;;;2.40;2.20;;;;;;;;;;5037865;28;20233;-36
2022/07/17 03:56:18;;;;;;;2.77;2.57;;;;;;;;;;5012472;28;20244;-37
2022/07/17 03:58:46;;;;;;;3.20;2.60;;;;;;;;;;5013415;28;20322;-35
2022/07/17 04:01:13;;;;;;;3.07;2.77;;;;;;;;;;5029736;28;20205;-38
2022/07/17 04:03:40;;;;;;;2.13;2.03;;;;;;;;;;5039197;28;20249;-36
2022/07/17 04:06:07;;;;;;;3.27;2.60;;;;;;;;;;5022884;28;20212;-37
2022/07/17 04:08:34;;;;;;;2.67;2.40;;;;;;;;;;5044810;28;20211;-34
2022/07/17 04:11:01;;;;;;;2.60;2.40;;;;;;;;;;5035186;28;20200;-36
2022/07/17 04:13:30;;;;;;;2.50;2.30;;;;;;;;;;5027460;28;20225;-36
2022/07/17 04:15:59;;;;;;;3.83;2.60;;;;;;;;;;5028325;28;20214;-38
2022/07/17 04:18:27;;;;;;;2.27;2.10;;;;;;;;;;5047455;28;20202;-38
2022/07/17 04:20:55;;;;;;;2.47;2.27;;;;;;;;;;5033269;28;20780;-31
2022/07/17 04:23:22;;;;;;;2.87;2.57;;;;;;;;;;5036319;28;20201;-34
2022/07/17 04:25:50;;;;;;;4.80;2.30;;;;;;;;;;5031768;28;20212;-37
2022/07/17 04:28:17;;;;;;;2.50;2.30;;;;;;;;;;5015380;28;20232;-37
2022/07/17 04:30:45;;;;;;;2.60;2.40;;;;;;;;;;5031840;28;20218;-35
2022/07/17 04:33:12;;;;;;;5.00;2.40;;;;;;;;;;5048863;28;20216;-32
2022/07/17 04:35:40;;;;;;;2.63;2.20;;;;;;;;;;5026001;28;20203;-35
2022/07/17 04:38:07;;;;;;;2.63;2.43;;;;;;;;;;5026329;28;20232;-33
2022/07/17 04:40:36;;;;;;;4.43;2.60;;;;;;;;;;5033409;28;20243;-38
2022/07/17 04:43:03;;;;;;;2.67;2.47;;;;;;;;;;5030242;28;20206;-38
2022/07/17 04:45:30;;;;;;;2.90;2.70;;;;;;;;;;5029064;28;20211;-38
2022/07/17 04:47:59;;;;;;;2.70;2.40;;;;;;;;;;5042560;28;20227;-35
2022/07/17 04:50:26;;;;;;;2.87;2.60;;;;;;;;;;5034305;28;20204;-36
2022/07/17 04:52:53;;;;;;;3.00;2.80;;;;;;;;;;5031089;28;20226;-35
2022/07/17 04:55:20;;;;;;;2.90;2.70;;;;;;;;;;5037036;28;20209;-36
2022/07/17 04:57:48;;;;;;;2.70;2.50;;;;;;;;;;5037895;28;20232;-34
2022/07/17 05:00:16;;;;;;;2.80;2.60;;;;;;;;;;5029860;28;20217;-35
2022/07/17 05:02:43;;;;;;;3.03;2.70;;;;;;;;;;5052496;28;20301;-34
2022/07/17 05:05:12;;;;;;;2.57;2.40;;;;;;;;;;5037661;28;20220;-38
2022/07/17 05:07:39;;;;;;;3.10;2.47;;;;;;;;;;5040633;28;20223;-37
2022/07/17 05:10:08;;;;;;;3.83;2.73;;;;;;;;;;5038555;28;20271;-38
2022/07/17 05:12:35;;;;;;;2.73;2.53;;;;;;;;;;5030719;28;20320;-35
2022/07/17 05:15:02;;;;;;;4.53;2.67;;;;;;;;;;5023742;28;20211;-35
2022/07/17 05:17:30;;;;;;;3.13;2.83;;;;;;;;;;5035768;28;20759;-35
2022/07/17 05:19:57;;;;;;;2.40;2.30;;;;;;;;;;5039834;28;20247;-37
2022/07/17 05:22:25;;;;;;;2.87;2.67;;;;;;;;;;5028316;28;20212;-37
2022/07/17 05:24:52;;;;;;;2.93;2.73;;;;;;;;;;5054894;28;20226;-35
2022/07/17 05:27:20;;;;;;;3.30;2.70;;;;;;;;;;5038335;28;20232;-35
2022/07/17 05:29:48;;;;;;;3.00;2.57;;;;;;;;;;5028850;28;20279;-33
2022/07/17 05:32:15;;;;;;;3.30;3.00;;;;;;;;;;5046006;28;20208;-33
2022/07/17 05:34:42;;;;;;;4.23;2.80;;;;;;;;;;5034190;28;20211;-36
2022/07/17 05:37:09;;;;;;;2.77;2.57;;;;;;;;;;5028958;28;20288;-32
2022/07/17 05:39:39;;;;;;;2.97;2.50;;;;;;;;;;5038643;28;20560;-38
2022/07/17 05:42:06;;;;;;;4.20;2.67;;;;;;;;;;5035610;28;20209;-37
2022/07/17 05:44:33;;;;;;;2.80;2.58;;;;;;;;;;5032102;28;20207;-34
2022/07/17 05:47:01;;;;;;;2.70;2.50;;;;;;;;;;5036339;28;20249;-40
2022/07/17 05:49:28;;;;;;;3.17;2.87;;;;;;;;;;5031096;28;20222;-35
2022/07/17 05:51:56;;;;;;;2.80;2.60;;;;;;;;;;5034149;28;20210;-36
2022/07/17 05:54:23;;;;;;;3.17;2.80;;;;;;;;;;5045939;28;20308;-35
2022/07/17 05:56:52;;;;;;;3.13;2.80;;;;;;;;;;5058139;28;20237;-34
2022/07/17 05:59:19;;;;;;;2.70;2.50;;;;;;;;;;5046511;28;20237;-36
2022/07/17 06:01:46;;;;;;;2.60;2.40;;;;;;;;;;5025197;28;20213;-35
2022/07/17 06:04:13;;;;;;;3.00;2.53;;;;;;;;;;5038403;28;20213;-35
2022/07/17 06:06:41;;;;;;;3.47;2.83;;;;;;;;;;5031008;28;20281;-35
2022/07/17 06:09:08;;;;;;;2.85;2.65;;;;;;;;;;5047038;28;20202;-37
2022/07/17 06:11:35;;;;;;;3.70;2.78;;;;;;;;;;5055587;28;20292;-34
2022/07/17 06:14:04;;;;;;;3.80;3.10;;;;;;;;;;5032541;28;20231;-37
2022/07/17 06:16:31;;;;;;;2.53;2.35;;;;;;;;;;5031039;28;20255;-36
2022/07/17 06:18:58;;;;;;;6.57;2.67;;;;;;;;;;5026885;28;20208;-36
2022/07/17 06:21:25;;;;;;;2.85;2.60;;;;;;;;;;5030207;28;20202;-38
2022/07/17 06:23:52;;;;;;;3.22;2.70;;;;;;;;;;5042755;28;20294;-37
2022/07/17 06:26:19;;;;;;;4.00;2.53;;;;;;;;;;5055238;28;20220;-39
2022/07/17 06:28:54;;;;;;;3.63;2.53;;;;;;;;;;5038259;28;20236;-38
2022/07/17 06:31:23;;;;;;;2.63;2.28;;;;;;;;;;5032789;28;20199;-38
2022/07/17 06:33:50;;;;;;;6.97;2.30;;;;;;;;;;5037191;28;20232;-37
2022/07/17 06:36:17;;;;;;;2.72;2.53;;;;;;;;;;5033812;28;20226;-34
2022/07/17 06:38:44;;;;;;;2.75;2.55;;;;;;;;;;5110914;22;20230;-37
2022/07/17 06:41:11;;;;;;;2.40;2.30;;;;;;;;;;5073608;28;20202;-36
2022/07/17 06:43:39;;;;;;;3.05;2.33;;;;;;;;;;5063183;28;20262;-37
2022/07/17 06:46:06;;;;;;;2.55;2.13;;;;;;;;;;5059401;28;20241;-36
2022/07/17 06:48:35;;;;;;;2.72;2.53;;;;;;;;;;5070037;28;20209;-34
2022/07/17 06:51:02;;;;;;;5.22;2.30;;;;;;;;;;5067139;28;20209;-33
2022/07/17 06:53:29;;;;;;;4.45;2.72;;;;;;;;;;5073872;28;20487;-32
2022/07/17 06:55:56;;;;;;;2.65;2.45;;;;;;;;;;5150757;22;20245;-33
2022/07/17 06:58:28;;;;;;;2.95;1.88;;;;;;;;;;5039526;28;20338;-35
2022/07/17 07:00:56;;;;;;;2.83;1.90;;;;;;;;;;5051300;28;20211;-36
2022/07/17 07:03:23;;;;;;;2.60;2.00;;;;;;;;;;5058743;28;20208;-36
2022/07/17 07:05:52;;;;;;;2.25;2.05;;;;;;;;;;5040875;28;20229;-34
2022/07/17 07:08:19;;;;;;;2.15;1.90;;;;;;;;;;5051417;28;20259;-33
2022/07/17 07:10:47;;;;;;;3.03;1.80;;;;;;;;;;5050702;28;20209;-35
2022/07/17 07:13:14;;;;;;;2.15;1.95;;;;;;;;;;5050297;28;20328;-36
2022/07/17 07:15:41;;;;;;;4.68;1.80;;;;;;;;;;5050915;28;20204;-35
2022/07/17 07:18:08;;;;;;;5.45;2.10;;;;;;;;;;5062596;28;20228;-35
2022/07/17 07:20:36;;;;;;;5.03;1.83;;;;;;;;;;5044877;28;20259;-33
2022/07/17 07:23:04;;;;;;;2.85;1.83;;;;;;;;;;5049956;28;20209;-31
2022/07/17 07:25:32;;;;;;;3.50;1.65;;;;;;;;;;5050943;28;20245;-36
2022/07/17 07:27:59;;;;;;;1.88;1.70;;;;;;;;;;5051406;28;20230;-33
2022/07/17 07:30:26;;;;;;;2.20;1.65;;;;;;;;;;5041199;28;20201;-35
2022/07/17 07:32:54;;;;;;;1.70;1.60;;;;;;;;;;5047879;28;20260;-36
2022/07/17 07:35:22;;;;;;;1.63;1.52;;;;;;;;;;5044265;28;20205;-35
2022/07/17 07:37:49;;;;;;;2.90;1.40;;;;;;;;;;5045100;28;20232;-37
2022/07/17 07:40:18;;;;;;;1.45;1.35;;;;;;;;;;5047323;28;20533;-38
2022/07/17 07:42:45;;;;;;;1.23;1.23;;;;;;;;;;5048286;28;20289;-33
2022/07/17 07:45:13;;;;;;;1.83;1.60;;;;;;;;;;5042486;28;20779;-34
2022/07/17 07:47:43;;;;;;;2.05;1.42;;;;;;;;;;5044891;28;20230;-36
2022/07/17 07:50:12;;;;;;;2.53;1.45;;;;;;;;;;5041848;28;20343;-36
2022/07/17 07:52:40;;;;;;;1.58;1.48;;;;;;;;;;5043586;28;20213;-33
2022/07/17 07:55:10;;;;;;;2.88;1.30;;;;;;;;;;5060880;28;20705;-35
2022/07/17 07:57:39;;;;;;;1.30;1.30;;;;;;;;;;5059121;28;20226;-32
2022/07/17 08:00:07;;;;;;;1.40;1.30;;;;;;;;;;5044644;28;20218;-37
2022/07/17 08:02:34;;;;;;;2.28;1.52;;;;;;;;;;5051559;28;20257;-35
2022/07/17 08:05:02;;;;;;;1.33;1.27;;;;;;;;;;5047846;28;20202;-33
2022/07/17 08:07:29;;;;;;;1.80;1.63;;;;;;;;;;5052382;28;20313;-32
2022/07/17 08:09:57;;;;;;;2.33;1.52;;;;;;;;;;5052228;28;20206;-34
2022/07/17 08:12:24;;;;;;;1.85;1.50;;;;;;;;;;5048582;28;20192;-35
2022/07/17 08:14:53;;;;;;;2.67;1.65;;;;;;;;;;5047360;28;20429;-34
2022/07/17 08:17:20;;;;;;;1.77;1.67;;;;;;;;;;5050821;28;20225;-35
2022/07/17 08:19:47;;;;;;;3.75;1.50;;;;;;;;;;5044464;28;20305;-36
2022/07/17 08:22:15;;;;;;;2.67;1.70;;;;;;;;;;5061779;28;20201;-34
2022/07/17 08:24:42;;;;;;;16.27;1.75;;;;;;;;;;5062537;28;20288;-38
2022/07/17 08:27:09;;;;;;;1.83;1.70;;;;;;;;;;5051085;28;20222;-34
2022/07/17 08:29:36;;;;;;;2.75;2.30;;;;;;;;;;5041300;28;20292;-32
2022/07/17 08:32:05;;;;;;;1.70;1.60;;;;;;;;;;5053996;28;20263;-36
2022/07/17 08:34:32;;;;;;;3.30;1.40;;;;;;;;;;5044789;28;20225;-34
2022/07/17 08:37:00;;;;;;;1.48;1.20;;;;;;;;;;5038803;28;20261;-34
2022/07/17 08:39:27;;;;;;;1.70;1.60;;;;;;;;;;5043273;28;20207;-32
2022/07/17 08:41:54;;;;;;;2.45;1.50;;;;;;;;;;5046915;28;20316;-37
2022/07/17 08:44:21;;;;;;;1.60;1.50;;;;;;;;;;5039386;28;20199;-36
2022/07/17 08:46:49;;;;;;;3.38;1.58;;;;;;;;;;5049586;28;20296;-34
2022/07/17 08:49:21;;;;;;;5.43;1.40;;;;;;;;;;5043649;28;20206;-34
2022/07/17 08:51:49;;;;;;;2.03;1.50;;;;;;;;;;5043423;28;20360;-33
2022/07/17 08:54:17;;;;;;;2.25;1.65;;;;;;;;;;5052990;28;20245;-33
2022/07/17 08:56:44;;;;;;;2.25;1.40;;;;;;;;;;5056268;28;20237;-36
2022/07/17 08:59:12;;;;;;;4.50;1.70;;;;;;;;;;5042010;28;20216;-32
2022/07/17 09:01:39;;;;;;;1.50;1.40;;;;;;;;;;5048443;28;20212;-36
2022/07/17 09:04:07;;;;;;;2.88;1.50;;;;;;;;;;5466341;22;20642;-36
2022/07/17 09:06:36;;;;;;;1.60;1.50;;;;;;;;;;5065330;28;20225;-36
2022/07/17 09:09:07;;;;;;;1.60;1.50;;;;;;;;;;5062035;28;20197;-34
2022/07/17 09:11:45;;;;;;;3.05;1.40;;;;;;;;;;5067937;28;20308;-32
2022/07/17 09:14:12;;;;;;;1.88;1.40;;;;;;;;;;5048040;28;20322;-35
2022/07/17 09:16:49;;;;;;;1.40;1.30;;;;;;;;;;5047032;28;20683;-33
2022/07/17 09:19:25;;;;;;;2.65;1.67;;;;;;;;;;5051081;28;20235;-33
2022/07/17 09:21:53;;;;;;;4.63;1.48;;;;;;;;;;5051640;28;20209;-33
2022/07/17 09:24:20;;;;;;;1.50;1.40;;;;;;;;;;5071407;28;20201;-33
2022/07/17 09:26:47;;;;;;;1.35;1.20;;;;;;;;;;5032015;28;20222;-35
2022/07/17 09:29:15;;;;;;;1.98;1.33;;;;;;;;;;5049136;28;20209;-34
2022/07/17 09:31:42;;;;;;;5.97;1.60;;;;;;;;;;5053401;28;20205;-35
2022/07/17 09:34:18;;;;;;;1.73;1.33;;;;;;;;;;5065156;28;20249;-31
2022/07/17 09:36:45;;;;;;;3.30;1.80;;;;;;;;;;5045680;28;20214;-33
2022/07/17 09:39:13;;;;;;;2.10;1.27;;;;;;;;;;5058498;28;20632;-36
2022/07/17 09:41:41;;;;;;;1.30;1.20;;;;;;;;;;5049749;28;20208;-35
2022/07/17 09:44:08;;;;;;;1.45;1.33;;;;;;;;;;5057641;28;20212;-35
2022/07/17 09:46:37;;;;;;;4.18;1.30;;;;;;;;;;5067498;28;20222;-34
2022/07/17 09:49:07;;;;;;;1.48;1.30;;;;;;;;;;5053797;28;20213;-34
2022/07/17 09:51:37;;;;;;;1.42;1.23;;;;;;;;;;5063909;28;20288;-33
2022/07/17 09:54:05;;;;;;;1.00;1.00;;;;;;;;;;5055870;28;20225;-32
2022/07/17 09:56:34;;;;;;;1.27;1.15;;;;;;;;;;5056212;28;20282;-33
2022/07/17 09:59:03;;;;;;;1.73;1.30;;;;;;;;;;5058629;28;20205;-33
2022/07/17 10:01:31;;;;;;;1.40;1.30;;;;;;;;;;5063052;28;20204;-35
2022/07/17 10:03:58;;;;;;;1.27;1.17;;;;;;;;;;5071470;28;20288;-38
2022/07/17 10:06:26;;;;;;;1.58;1.48;;;;;;;;;;5053892;28;20235;-34
2022/07/17 10:08:54;;;;;;;1.38;1.30;;;;;;;;;;5052953;28;20263;-36
2022/07/17 10:11:21;;;;;;;1.75;1.40;;;;;;;;;;5051251;28;20219;-37
2022/07/17 10:13:51;;;;;;;1.33;1.23;;;;;;;;;;5055813;28;20214;-35
2022/07/17 10:16:25;;;;;;;1.40;1.30;;;;;;;;;;5066753;28;20229;-37
2022/07/17 10:18:54;;;;;;;1.80;1.20;;;;;;;;;;5073101;28;20191;-37
2022/07/17 10:21:22;;;;;;;2.63;1.30;;;;;;;;;;5049854;28;20211;-37
2022/07/17 10:24:06;;;;;;;2.47;1.35;;;;;;;;;;5057229;28;20221;-32
2022/07/17 10:26:34;;;;;;;1.25;1.05;;;;;;;;;;5067844;28;20261;-35
2022/07/17 10:29:03;;;;;;;1.95;1.52;;;;;;;;;;5061821;28;20223;-37
2022/07/17 10:31:31;;;;;;;1.52;1.20;;;;;;;;;;5058287;28;20203;-37
2022/07/17 10:33:58;;;;;;;1.42;1.40;;;;;;;;;;5069453;28;20219;-34
2022/07/17 10:36:36;;;;;;;1.40;1.30;;;;;;;;;;5048328;28;20234;-32
2022/07/17 10:39:13;;;;;;;2.10;1.30;;;;;;;;;;5055471;28;20207;-35
2022/07/17 10:41:41;;;;;;;1.35;1.30;;;;;;;;;;5074932;28;20212;-34
2022/07/17 10:44:10;;;;;;;2.13;1.33;;;;;;;;;;5056323;28;20238;-33
2022/07/17 10:46:37;;;;;;;1.35;1.27;;;;;;;;;;5049565;28;20637;-33
2022/07/17 10:49:04;;;;;;;1.70;1.40;;;;;;;;;;5054656;28;20208;-34
2022/07/17 10:51:32;;;;;;;1.10;1.10;;;;;;;;;;5057991;28;20287;-34
2022/07/17 10:53:59;;;;;;;1.23;1.15;;;;;;;;;;5063290;28;20212;-37
2022/07/17 10:56:27;;;;;;;1.40;1.30;;;;;;;;;;5063085;28;20248;-40
2022/07/17 10:58:55;;;;;;;1.52;1.42;;;;;;;;;;5042351;28;20244;-39
2022/07/17 11:01:23;;;;;;;1.50;1.40;;;;;;;;;;5061100;28;20193;-42
2022/07/17 11:03:51;;;;;;;1.50;1.40;;;;;;;;;;5054429;28;20224;-42
2022/07/17 11:06:19;;;;;;;1.33;1.23;;;;;;;;;;5052206;28;20225;-43
2022/07/17 11:08:48;;;;;;;1.40;1.30;;;;;;;;;;5062612;28;20207;-39
2022/07/17 11:11:16;;;;;;;1.08;1.08;;;;;;;;;;5054419;28;20208;-43
2022/07/17 11:13:43;;;;;;;1.45;1.25;;;;;;;;;;5052604;28;20201;-39
2022/07/17 11:16:10;;;;;;;1.88;1.27;;;;;;;;;;5050648;28;20313;-39
2022/07/17 11:18:38;;;;;;;1.80;1.30;;;;;;;;;;5049716;28;20755;-45
2022/07/17 11:21:06;;;;;;;1.67;1.30;;;;;;;;;;5057898;28;20211;-40
2022/07/17 11:23:33;;;;;;;1.52;1.42;;;;;;;;;;5069629;28;20205;-40
2022/07/17 11:26:02;;;;;;;2.50;1.42;;;;;;;;;;5072387;28;20211;-42
2022/07/17 11:28:31;;;;;;;1.10;1.10;;;;;;;;;;5034133;28;20221;-42
2022/07/17 11:30:58;;;;;;;1.30;1.20;;;;;;;;;;5060590;28;20227;-39
2022/07/17 11:33:25;;;;;;;1.50;1.40;;;;;;;;;;5069084;28;20208;-43
2022/07/17 11:35:54;;;;;;;2.92;1.40;;;;;;;;;;5050302;28;20428;-44
2022/07/17 11:38:25;;;;;;;1.83;1.60;;;;;;;;;;5049974;28;20629;-44
2022/07/17 11:40:52;;;;;;;1.08;0.95;;;;;;;;;;5057432;28;20205;-40
2022/07/17 11:43:20;;;;;;;1.33;1.25;;;;;;;;;;5052605;28;20208;-39
2022/07/17 11:45:47;;;;;;;1.10;1.10;;;;;;;;;;5057532;28;20596;-39
2022/07/17 11:48:15;;;;;;;1.40;1.30;;;;;;;;;;5048991;28;20227;-37
2022/07/17 11:50:42;;;;;;;1.60;1.50;;;;;;;;;;5056452;28;20200;-41
2022/07/17 11:53:10;;;;;;;1.33;1.20;;;;;;;;;;5065237;28;20210;-40
2022/07/17 11:55:37;;;;;;;1.27;1.10;;;;;;;;;;5047811;28;20229;-42
2022/07/17 11:58:05;;;;;;;1.83;1.58;;;;;;;;;;5033150;28;20231;-37
2022/07/17 12:00:32;;;;;;;4.22;1.65;;;;;;;;;;5049792;28;20205;-44
2022/07/17 12:03:00;;;;;;;1.65;1.58;;;;;;;;;;5055363;28;20205;-41
2022/07/17 12:05:28;;;;;;;1.20;1.20;;;;;;;;;;5049077;28;20208;-42
2022/07/17 12:07:55;;;;;;;1.55;1.48;;;;;;;;;;5049477;28;20236;-41
2022/07/17 12:10:25;;;;;;;2.72;1.30;;;;;;;;;;5058027;28;20292;-42
2022/07/17 12:12:53;;;;;;;1.75;1.40;;;;;;;;;;5050633;28;20204;-42
2022/07/17 12:15:20;;;;;;;1.35;1.25;;;;;;;;;;5052128;28;20223;-42
2022/07/17 12:17:48;;;;;;;1.40;1.30;;;;;;;;;;5041489;28;20226;-43
2022/07/17 12:20:15;;;;;;;2.20;1.20;;;;;;;;;;5047501;28;20254;-43
2022/07/17 12:22:46;;;;;;;1.35;1.25;;;;;;;;;;5057603;28;20208;-40
2022/07/17 12:25:24;;;;;;;2.25;0.90;;;;;;;;;;5053611;28;20249;-42
2022/07/17 12:27:51;;;;;;;1.10;1.10;;;;;;;;;;5046763;28;20225;-43
2022/07/17 12:30:19;;;;;;;1.30;1.20;;;;;;;;;;5059304;28;20292;-40
2022/07/17 12:32:47;;;;;;;1.50;1.40;;;;;;;;;;5064363;28;20225;-43
2022/07/17 12:35:14;;;;;;;1.50;1.38;;;;;;;;;;5047944;28;20232;-45
2022/07/17 12:37:41;;;;;;;2.05;1.27;;;;;;;;;;5057191;28;20350;-40
2022/07/17 12:40:09;;;;;;;2.13;1.50;;;;;;;;;;5052695;28;20213;-44
2022/07/17 12:42:38;;;;;;;1.80;1.48;;;;;;;;;;5050515;28;20201;-44
2022/07/17 12:45:06;;;;;;;2.25;1.23;;;;;;;;;;5045912;28;20200;-41
2022/07/17 12:47:33;;;;;;;1.42;1.33;;;;;;;;;;5049449;28;20225;-42
2022/07/17 12:50:00;;;;;;;1.80;1.50;;;;;;;;;;5047671;28;20206;-44
2022/07/17 12:52:27;;;;;;;1.65;1.55;;;;;;;;;;5051275;28;20196;-42
2022/07/17 12:54:55;;;;;;;1.65;1.27;;;;;;;;;;5049591;28;20243;-43
2022/07/17 12:57:22;;;;;;;1.70;1.60;;;;;;;;;;5048404;28;20232;-44
2022/07/17 12:59:51;;;;;;;1.95;1.20;;;;;;;;;;5047598;28;20218;-44
2022/07/17 13:02:18;;;;;;;1.38;1.27;;;;;;;;;;5053134;28;20204;-41
2022/07/17 13:04:46;;;;;;;1.52;1.42;;;;;;;;;;5049554;28;20214;-44
2022/07/17 13:07:13;;;;;;;1.63;1.52;;;;;;;;;;5051529;28;20230;-41
2022/07/17 13:09:41;;;;;;;1.92;1.83;;;;;;;;;;5058247;28;20201;-39
2022/07/17 13:12:08;;;;;;;1.83;1.73;;;;;;;;;;5064819;28;20615;-41
2022/07/17 13:14:35;;;;;;;3.65;1.65;;;;;;;;;;5060601;28;20196;-45
2022/07/17 13:17:04;;;;;;;2.50;1.50;;;;;;;;;;5051137;28;20225;-38
2022/07/17 13:19:31;;;;;;;1.30;1.20;;;;;;;;;;5052677;28;20201;-43
2022/07/17 13:21:58;;;;;;;2.60;1.40;;;;;;;;;;5044270;28;20214;-39
2022/07/17 13:24:25;;;;;;;1.40;1.10;;;;;;;;;;5059585;28;20195;-41
2022/07/17 13:26:54;;;;;;;1.75;1.17;;;;;;;;;;5063738;28;20218;-43
2022/07/17 13:29:22;;;;;;;1.67;1.58;;;;;;;;;;5049512;28;20224;-43
2022/07/17 13:31:49;;;;;;;1.02;1.02;;;;;;;;;;5059821;28;20297;-42
2022/07/17 13:34:17;;;;;;;2.08;1.55;;;;;;;;;;5066561;28;20266;-42
2022/07/17 13:36:44;;;;;;;1.15;1.08;;;;;;;;;;5050997;28;20248;-40
2022/07/17 13:39:11;;;;;;;2.08;1.00;;;;;;;;;;5060788;28;20216;-43
2022/07/17 13:41:39;;;;;;;1.02;0.95;;;;;;;;;;5052982;28;20210;-41
2022/07/17 13:44:06;;;;;;;1.88;1.13;;;;;;;;;;5053155;28;20215;-43
2022/07/17 13:46:34;;;;;;;1.38;1.15;;;;;;;;;;5059922;28;20218;-45
2022/07/17 13:49:04;;;;;;;1.20;1.20;;;;;;;;;;5062643;28;20670;-44
2022/07/17 13:51:33;;;;;;;1.13;1.10;;;;;;;;;;5053146;28;20239;-40
2022/07/17 13:54:00;;;;;;;1.40;1.30;;;;;;;;;;5048068;28;20214;-40
2022/07/17 13:56:27;;;;;;;1.88;1.10;;;;;;;;;;5055607;28;20248;-43
2022/07/17 13:58:55;;;;;;;1.50;1.40;;;;;;;;;;5054097;28;20209;-39
2022/07/17 14:01:22;;;;;;;1.02;1.02;;;;;;;;;;5064079;28;20284;-42
2022/07/17 14:03:49;;;;;;;2.50;1.20;;;;;;;;;;5074413;28;20215;-39
2022/07/17 14:06:16;;;;;;;1.17;1.17;;;;;;;;;;5050377;28;20254;-42
2022/07/17 14:08:45;;;;;;;1.58;1.30;;;;;;;;;;5057905;28;20205;-41
2022/07/17 14:11:16;;;;;;;5.93;5.32;;;;;;;;;;5061766;28;20236;-42
2022/07/17 14:13:43;;;;;;;1.50;1.40;;;;;;;;;;5059741;28;20246;-42
2022/07/17 14:16:10;;;;;;;2.05;1.80;;;;;;;;;;5069629;28;20223;-44
2022/07/17 14:18:57;;;;;;;1.48;1.38;;;;;;;;;;5076615;28;20575;-38
2022/07/17 14:21:24;;;;;;;1.17;1.17;;;;;;;;;;5052604;28;20205;-41
2022/07/17 14:23:53;;;;;;;1.40;1.30;;;;;;;;;;5062505;28;20202;-42
2022/07/17 14:26:20;;;;;;;1.85;1.75;;;;;;;;;;5059826;28;20244;-41
2022/07/17 14:28:48;;;;;;;1.42;1.33;;;;;;;;;;5057415;28;20201;-38
2022/07/17 14:31:16;;;;;;;1.50;1.40;;;;;;;;;;5068909;28;20200;-46
2022/07/17 14:33:43;;;;;;;1.38;1.27;;;;;;;;;;5056039;28;20209;-44
2022/07/17 14:36:10;;;;;;;1.63;1.23;;;;;;;;;;5045633;28;20707;-45
2022/07/17 14:38:37;;;;;;;2.38;1.35;;;;;;;;;;5052632;28;20241;-42
2022/07/17 14:41:06;;;;;;;1.17;1.17;;;;;;;;;;5059045;28;20221;-44
2022/07/17 14:43:33;;;;;;;1.27;1.23;;;;;;;;;;5050035;28;20208;-42
2022/07/17 14:46:00;;;;;;;2.35;1.30;;;;;;;;;;5048383;28;20289;-42